Beaufort, SC (29901)

1:05 PM EDT on June 27, 2017 (GMT -0400)
Technical College of the Lowcountry Beaufort | | Change Station

Elev 13 ft 32.42 °N, 80.69 °W | Updated 10 minutes ago

Scattered Clouds
Scattered Clouds
84.4 °F
Feels Like 89 °F
N
5.0
Wind Variable Wind from East
Gusts 7.0 mph

Today
High -- | Low -- °F
--% Chance of Precip.
Yesterday
High -- | Low -- °F
Precip. -- in
Pressure 30.03 in
Visibility 7.0 miles
Clouds Scattered Clouds 5000 ft
Scattered Clouds 7000 ft
Heat Index 89 °F
Dew Point 70 °F
Humidity 62%
Rainfall 0.00 in
Snow Depth Not available.
6:17 AM 8:33 PM
Waxing Crescent, 17% visible
METAR KARW 271655Z AUTO 05006KT 7SM SCT050 SCT070 28/19 A3003 RMK AO2
Pressure 30.03 in
Visibility 7.0 miles
Clouds Scattered Clouds 5000 ft
Scattered Clouds 7000 ft
Heat Index 89 °F
Dew Point 70 °F
Humidity 62%
Rainfall 0.00 in
Snow Depth Not available.
6:17 AM 8:33 PM
Waxing Crescent, 17% visible
METAR KARW 271655Z AUTO 05006KT 7SM SCT050 SCT070 28/19 A3003 RMK AO2

Get Severe Weather Alerts

Thanks for signing up!

Be on the lookout for a verification email in your inbox.

You'll start receiving the daily forecast at 6 AM.

×

10-Day Weather Forecast

Almanac

Astronomy

Jun. 27, 2017 Rise Set
Actual Time
Civil Twilight
Nautical Twilight
Astronomical Twilight
Moon
Length of Visible Light
Length of Day
Tomorrow will be .
, % of the Moon is Illuminated

Today's Extremes

State Highs State Lows

Community

WunderPhotos

Category 6

Welcome to Category 6. This is the collective home for Weather Underground's featured writeups by Dr. Jeff Masters (right), Bob Henson (left), Chris Burt, and other regular contributors.

Nearby

Air Quality

  Air Quality AQ Index Pollutant
Not available.

Snow Depth

Station Depth Elevation

Earthquake Activity

City Distance Mag. Time & Date
Minimum magnitude displayed is 2.5.

Coastal Water Temperatures

Place Temperature

Stations

Nearby Weather Stations

Station Location Temp. Windchill Dew Point Humidity Wind Precip. Elev Updated Type
                   

Watches & Warnings

There are currently no watches in effect.